This is the latest recevied weather packets stored in our database for station/object DA6VK-10. If no packets are shown the sender has not sent any weather packets the latest 10 day(s).
| Time | Temp. | Humidity | Pressure | Rain* | Wind** | Luminosity | Snow |
|---|---|---|---|---|---|---|---|
| 1777609737 | 10.56° C | 36% | 1027.3 hPa | - | - | - | - |
| 1777608836 | 11.11° C | 34% | 1027.4 hPa | - | - | - | - |
| 1777607935 | 11.67° C | 34% | 1027.3 hPa | - | - | - | - |
| 1777607034 | 11.67° C | 36% | 1027.3 hPa | - | - | - | - |
| 1777606134 | 11.67° C | 35% | 1027.2 hPa | - | - | - | - |
| 1777604332 | 12.22° C | 32% | 1027.4 hPa | - | - | - | - |
| 1777601630 | 13.33° C | 28% | 1027.4 hPa | - | - | - | - |
| 1777597125 | 14.44° C | 24% | 1027.2 hPa | - | - | - | - |
| 1777595324 | 13.89° C | 27% | 1027.4 hPa | - | - | - | - |
| 1777592621 | 15° C | 28% | 1027.5 hPa | - | - | - | - |
| 1777591721 | 15° C | 27% | 1027.3 hPa | - | - | - | - |
| 1777590820 | 15.56° C | 26% | 1027.3 hPa | - | - | - | - |
| 1777589919 | 15.56° C | 27% | 1027.2 hPa | - | - | - | - |
| 1777589018 | 16.11° C | 23% | 1027.2 hPa | - | - | - | - |
| 1777588117 | 11.67° C | 24% | 1019.3 hPa | - | - | - | - |
| 1777585415 | 17.22° C | 21% | 1026.9 hPa | - | - | - | - |
| 1777584514 | 17.78° C | 20% | 1026.8 hPa | - | - | - | - |
| 1777582712 | 18.33° C | 20% | 1026.8 hPa | - | - | - | - |
| 1777581811 | 18.89° C | 19% | 1026.7 hPa | - | - | - | - |
| 1777580911 | 19.44° C | 18% | 1026.8 hPa | - | - | - | - |
| 1777580008 | 19.44° C | 18% | 1026.7 hPa | - | - | - | - |
| 1777579108 | 20.56° C | 17% | 1026.7 hPa | - | - | - | - |
| 1777578207 | 21.11° C | 17% | 1026.5 hPa | - | - | - | - |
| 1777576405 | 22.22° C | 14% | 1026.4 hPa | - | - | - | - |
| 1777575504 | 22.78° C | 13% | 1026.2 hPa | - | - | - | - |
* Rain since midnight (hover to see other rain measurements)
** Current wind speed in m/s (hover to see current wind gust speed)